createdAt,value
2023-04-26T00:00:04.193Z,1005.95
2023-04-26T00:01:04.234Z,1005.95
2023-04-26T00:02:04.177Z,1005.95
2023-04-26T00:03:04.340Z,1005.95
2023-04-26T00:04:04.357Z,1005.96
2023-04-26T00:05:04.449Z,1005.96
2023-04-26T00:06:04.131Z,1005.98
2023-04-26T00:07:04.155Z,1005.99
2023-04-26T00:08:04.118Z,1005.99
2023-04-26T00:09:04.122Z,1005.99
2023-04-26T00:10:04.110Z,1005.98
2023-04-26T00:11:04.103Z,1005.98
2023-04-26T00:12:04.156Z,1005.98
2023-04-26T00:13:04.072Z,1005.99
2023-04-26T00:14:04.051Z,1005.99
2023-04-26T00:15:04.068Z,1006.00
2023-04-26T00:16:04.070Z,1006.01
2023-04-26T00:17:04.007Z,1006.02
2023-04-26T00:18:04.069Z,1006.03
2023-04-26T00:19:03.994Z,1006.05
2023-04-26T00:20:04.035Z,1006.06
2023-04-26T00:21:03.985Z,1006.08
2023-04-26T00:22:03.971Z,1006.09
2023-04-26T00:23:03.951Z,1006.10
2023-04-26T00:24:03.982Z,1006.11
2023-04-26T00:25:03.935Z,1006.12
2023-04-26T00:26:03.944Z,1006.13
2023-04-26T00:27:03.903Z,1006.14
2023-04-26T00:28:03.929Z,1006.16
2023-04-26T00:29:03.933Z,1006.18
2023-04-26T00:30:03.887Z,1006.18
2023-04-26T00:31:03.859Z,1006.18
2023-04-26T00:32:03.988Z,1006.17
2023-04-26T00:33:03.876Z,1006.17
2023-04-26T00:34:03.863Z,1006.17
2023-04-26T00:35:03.867Z,1006.17
2023-04-26T00:36:03.836Z,1006.17
2023-04-26T00:37:03.815Z,1006.17
2023-04-26T00:38:03.812Z,1006.16
2023-04-26T00:39:03.771Z,1006.16
2023-04-26T00:40:03.783Z,1006.16
2023-04-26T00:41:03.790Z,1006.15
2023-04-26T00:42:03.776Z,1006.13
2023-04-26T00:43:03.759Z,1006.13
2023-04-26T00:44:03.765Z,1006.12
2023-04-26T00:45:03.712Z,1006.13
2023-04-26T00:46:03.799Z,1006.15
2023-04-26T00:47:03.747Z,1006.16
2023-04-26T00:48:03.749Z,1006.16
2023-04-26T00:49:03.679Z,1006.16
2023-04-26T00:50:03.686Z,1006.16
2023-04-26T00:51:03.651Z,1006.15
2023-04-26T00:52:03.657Z,1006.15
2023-04-26T00:53:03.674Z,1006.16
2023-04-26T00:54:03.634Z,1006.17
2023-04-26T00:55:03.626Z,1006.17
2023-04-26T00:56:03.734Z,1006.17
2023-04-26T00:57:03.613Z,1006.15
2023-04-26T00:58:03.615Z,1006.15
2023-04-26T00:59:03.564Z,1006.15
2023-04-26T01:00:03.566Z,1006.14
2023-04-26T01:01:03.571Z,1006.14
2023-04-26T01:02:03.594Z,1006.14
2023-04-26T01:03:03.738Z,1006.13
2023-04-26T01:04:03.760Z,1006.13
2023-04-26T01:05:03.499Z,1006.13
2023-04-26T01:06:03.523Z,1006.12
2023-04-26T01:07:03.474Z,1006.12
2023-04-26T01:08:03.493Z,1006.11
2023-04-26T01:09:03.453Z,1006.10
2023-04-26T01:10:03.539Z,1006.09
2023-04-26T01:11:03.444Z,1006.08
2023-04-26T01:12:03.460Z,1006.07
2023-04-26T01:13:03.463Z,1006.07
2023-04-26T01:14:03.436Z,1006.08
2023-04-26T01:15:03.407Z,1006.09
2023-04-26T01:16:03.492Z,1006.10
2023-04-26T01:17:03.441Z,1006.10
2023-04-26T01:18:03.460Z,1006.10
2023-04-26T01:19:03.362Z,1006.10
2023-04-26T01:20:03.358Z,1006.10
2023-04-26T01:21:03.578Z,1006.11
2023-04-26T01:22:03.346Z,1006.11
2023-04-26T01:23:03.308Z,1006.12
2023-04-26T01:24:03.326Z,1006.12
2023-04-26T01:25:03.283Z,1006.12
2023-04-26T01:26:03.292Z,1006.11
2023-04-26T01:27:03.284Z,1006.10
2023-04-26T01:28:03.275Z,1006.09
2023-04-26T01:29:03.246Z,1006.08
2023-04-26T01:30:03.253Z,1006.06
2023-04-26T06:00:59.138Z,1006.99
2023-04-26T06:02:00.187Z,1007.01
2023-04-26T06:03:00.303Z,1007.01
2023-04-26T06:04:01.395Z,1007.00
2023-04-26T06:05:00.231Z,1007.01
2023-04-26T06:06:00.222Z,1007.00
2023-04-26T06:07:00.058Z,1007.02
2023-04-26T06:08:00.081Z,1007.04
2023-04-26T06:09:00.045Z,1007.06
2023-04-26T06:10:00.057Z,1007.07
2023-04-26T06:11:00.033Z,1007.09
2023-04-26T06:12:00.054Z,1007.10
2023-04-26T06:12:59.998Z,1007.13
2023-04-26T06:13:59.999Z,1007.15
2023-04-26T06:14:59.984Z,1007.15
2023-04-26T06:15:59.984Z,1007.17
2023-04-26T06:17:00.000Z,1007.16
2023-04-26T06:18:00.011Z,1007.16
2023-04-26T06:18:59.987Z,1007.13
2023-04-26T06:19:59.945Z,1007.15
2023-04-26T06:20:59.966Z,1007.15
2023-04-26T06:21:59.915Z,1007.16
2023-04-26T06:22:59.886Z,1007.17
2023-04-26T06:23:59.895Z,1007.16
2023-04-26T06:24:59.889Z,1007.14
2023-04-26T06:25:59.878Z,1007.13
2023-04-26T06:26:59.887Z,1007.13
2023-04-26T06:27:59.878Z,1007.13
2023-04-26T06:28:59.835Z,1007.14
2023-04-26T06:29:59.856Z,1007.16
2023-04-26T06:30:59.861Z,1007.17
2023-04-26T06:31:59.852Z,1007.19
2023-04-26T06:32:59.911Z,1007.19
2023-04-26T06:33:59.831Z,1007.19
2023-04-26T06:34:59.769Z,1007.20
2023-04-26T06:35:59.774Z,1007.21
2023-04-26T06:36:59.752Z,1007.20
2023-04-26T06:37:59.798Z,1007.21
2023-04-26T06:38:59.729Z,1007.21
2023-04-26T06:39:59.747Z,1007.20
2023-04-26T06:40:59.732Z,1007.20
2023-04-26T06:41:59.681Z,1007.21
2023-04-26T06:42:59.710Z,1007.22
2023-04-26T06:43:59.680Z,1007.23
2023-04-26T06:44:59.702Z,1007.24
2023-04-26T06:45:59.685Z,1007.24
2023-04-26T06:46:59.673Z,1007.23
2023-04-26T06:47:59.698Z,1007.22
2023-04-26T06:48:59.666Z,1007.22
2023-04-26T06:49:59.631Z,1007.22
2023-04-26T06:50:59.641Z,1007.23
2023-04-26T06:51:59.597Z,1007.24
2023-04-26T06:52:59.610Z,1007.25
2023-04-26T06:53:59.573Z,1007.26
2023-04-26T06:54:59.574Z,1007.26
2023-04-26T06:55:59.542Z,1007.26
2023-04-26T06:57:01.372Z,1007.26
2023-04-26T06:57:59.514Z,1007.25
2023-04-26T06:58:59.523Z,1007.25
2023-04-26T06:59:59.510Z,1007.26
2023-04-26T07:00:59.514Z,1007.25
2023-04-26T07:01:59.529Z,1007.24
2023-04-26T07:02:59.803Z,1007.23
2023-04-26T07:03:59.735Z,1007.24
2023-04-26T07:04:59.607Z,1007.24
2023-04-26T07:05:59.454Z,1007.24
2023-04-26T07:06:59.436Z,1007.24
2023-04-26T07:07:59.415Z,1007.23
2023-04-26T07:09:59.403Z,1007.24
2023-04-26T07:10:59.445Z,1007.24
2023-04-26T07:11:59.386Z,1007.24
2023-04-26T07:12:59.555Z,1007.25
2023-04-26T07:13:59.345Z,1007.26
2023-04-26T07:14:59.394Z,1007.27
2023-04-26T07:15:59.386Z,1007.27
2023-04-26T07:16:59.361Z,1007.27
2023-04-26T07:17:59.370Z,1007.26
2023-04-26T07:18:59.303Z,1007.26
2023-04-26T07:19:59.288Z,1007.25
2023-04-26T07:20:59.313Z,1007.24
2023-04-26T07:21:59.367Z,1007.25
2023-04-26T07:22:59.277Z,1007.25
2023-04-26T07:23:59.237Z,1007.24
2023-04-26T07:24:59.245Z,1007.25
2023-04-26T07:25:59.223Z,1007.25
2023-04-26T07:26:59.385Z,1007.24
2023-04-26T07:27:59.199Z,1007.24
2023-04-26T07:28:59.217Z,1007.25
2023-04-26T07:29:59.186Z,1007.25
2023-04-26T07:30:59.198Z,1007.27
2023-04-26T07:31:59.155Z,1007.27
2023-04-26T07:32:59.283Z,1007.29
2023-04-26T07:33:59.164Z,1007.28
2023-04-26T07:34:59.168Z,1007.24
2023-04-26T07:35:59.110Z,1007.22
2023-04-26T07:36:59.124Z,1007.19
2023-04-26T07:37:59.104Z,1007.18
2023-04-26T07:38:59.150Z,1007.16
2023-04-26T07:39:59.077Z,1007.17
2023-04-26T07:40:59.093Z,1007.20
2023-04-26T07:41:59.638Z,1007.21
2023-04-26T07:42:59.066Z,1007.22
2023-04-26T07:43:59.038Z,1007.23
2023-04-26T07:44:59.141Z,1007.22
2023-04-26T07:45:59.039Z,1007.18
2023-04-26T07:46:59.008Z,1007.19
2023-04-26T07:47:59.036Z,1007.19
2023-04-26T07:48:58.991Z,1007.19
2023-04-26T07:49:58.993Z,1007.17
2023-04-26T07:50:59.035Z,1007.16
2023-04-26T07:51:58.944Z,1007.15
2023-04-26T07:52:58.953Z,1007.14
2023-04-26T07:53:59.039Z,1007.13
2023-04-26T07:54:58.940Z,1007.14
2023-04-26T07:55:58.927Z,1007.15
2023-04-26T07:56:58.979Z,1007.15
2023-04-26T07:57:58.887Z,1007.16
2023-04-26T07:58:58.911Z,1007.14
2023-04-26T07:59:58.860Z,1007.15
2023-04-26T08:00:58.890Z,1007.14
2023-04-26T08:01:58.907Z,1007.12
2023-04-26T08:02:59.066Z,1007.14
2023-04-26T08:03:59.283Z,1007.11
2023-04-26T08:04:58.962Z,1007.10
2023-04-26T08:05:58.901Z,1007.09
2023-04-26T08:06:58.810Z,1007.10
2023-04-26T08:07:58.802Z,1007.11
2023-04-26T08:08:58.808Z,1007.13
2023-04-26T08:09:58.795Z,1007.14
2023-04-26T08:10:58.749Z,1007.15
2023-04-26T08:11:58.801Z,1007.15
2023-04-26T08:12:58.787Z,1007.14
2023-04-26T08:13:58.782Z,1007.14
2023-04-26T08:14:58.735Z,1007.13
2023-04-26T08:15:58.722Z,1007.14
2023-04-26T08:16:58.769Z,1007.15
2023-04-26T08:17:58.735Z,1007.16
2023-04-26T08:18:58.686Z,1007.13
2023-04-26T08:19:58.661Z,1007.17
2023-04-26T08:20:58.651Z,1007.16
2023-04-26T08:21:58.655Z,1007.16
2023-04-26T08:22:58.628Z,1007.16
2023-04-26T08:23:58.619Z,1007.13
2023-04-26T08:24:58.697Z,1007.14
2023-04-26T08:25:58.600Z,1007.16
2023-04-26T08:26:58.604Z,1007.16
2023-04-26T08:27:58.551Z,1007.15
2023-04-26T08:28:58.593Z,1007.16
2023-04-26T08:29:58.539Z,1007.15
2023-04-26T08:30:58.648Z,1007.16
2023-04-26T08:31:58.537Z,1007.18
2023-04-26T08:32:58.569Z,1007.16
2023-04-26T08:33:58.515Z,1007.16
2023-04-26T08:34:58.544Z,1007.15
2023-04-26T08:35:58.494Z,1007.16
2023-04-26T08:36:58.474Z,1007.13
2023-04-26T08:37:58.475Z,1007.12
2023-04-26T08:38:58.468Z,1007.13
2023-04-26T08:39:58.564Z,1007.16
2023-04-26T08:40:58.505Z,1007.16
2023-04-26T08:41:58.431Z,1007.16
2023-04-26T08:42:58.446Z,1007.14
2023-04-26T08:43:58.407Z,1007.14
2023-04-26T08:44:58.403Z,1007.14
2023-04-26T08:45:58.413Z,1007.12
2023-04-26T08:46:58.424Z,1007.10
2023-04-26T08:47:58.357Z,1007.08
2023-04-26T08:48:58.367Z,1007.07
2023-04-26T08:49:58.334Z,1007.06
2023-04-26T08:50:58.373Z,1007.06
2023-04-26T08:51:58.307Z,1007.05
2023-04-26T08:52:58.328Z,1007.06
2023-04-26T08:53:58.322Z,1007.05
2023-04-26T08:54:58.305Z,1007.04
2023-04-26T08:55:58.269Z,1007.02
2023-04-26T08:56:58.287Z,1007.00
2023-04-26T08:57:58.244Z,1006.98
2023-04-26T08:58:58.251Z,1006.97
2023-04-26T08:59:58.266Z,1006.95
2023-04-26T09:00:58.236Z,1006.94
2023-04-26T09:01:58.289Z,1006.93
2023-04-26T09:02:58.424Z,1006.92
2023-04-26T09:03:58.654Z,1006.91
2023-04-26T09:04:58.272Z,1006.90
2023-04-26T09:05:58.204Z,1006.89
2023-04-26T09:06:58.165Z,1006.87
2023-04-26T09:07:58.147Z,1006.85
2023-04-26T09:08:58.171Z,1006.85
2023-04-26T09:09:58.122Z,1006.83
2023-04-26T09:10:58.266Z,1006.82
2023-04-26T09:11:58.128Z,1006.80
2023-04-26T09:12:58.113Z,1006.81
2023-04-26T09:13:58.091Z,1006.82
2023-04-26T09:14:58.105Z,1006.82
2023-04-26T09:15:58.070Z,1006.84
2023-04-26T09:16:58.112Z,1006.83
2023-04-26T09:17:58.054Z,1006.81
2023-04-26T09:18:58.039Z,1006.82
2023-04-26T09:19:58.034Z,1006.81
2023-04-26T09:20:58.370Z,1006.83
2023-04-26T09:21:57.992Z,1006.81
2023-04-26T09:22:58.051Z,1006.80
2023-04-26T09:23:57.994Z,1006.80
2023-04-26T09:24:57.975Z,1006.81
2023-04-26T09:25:57.974Z,1006.81
2023-04-26T09:26:57.983Z,1006.80
2023-04-26T09:27:58.007Z,1006.80
2023-04-26T09:28:57.985Z,1006.82
2023-04-26T09:29:57.900Z,1006.83
2023-04-26T09:30:57.981Z,1006.86
2023-04-26T09:31:57.980Z,1006.89
2023-04-26T09:32:58.076Z,1006.91
2023-04-26T09:33:57.916Z,1006.90
2023-04-26T09:34:57.899Z,1006.91
2023-04-26T09:35:57.854Z,1006.91
2023-04-26T09:36:57.869Z,1006.89
2023-04-26T09:38:00.862Z,1006.87
2023-04-26T09:38:57.868Z,1006.85
2023-04-26T09:39:57.810Z,1006.82
2023-04-26T09:40:57.885Z,1006.81
2023-04-26T09:41:57.876Z,1006.80
2023-04-26T09:42:57.886Z,1006.81
2023-04-26T09:43:57.890Z,1006.84
2023-04-26T09:44:57.899Z,1006.81
2023-04-26T09:45:57.744Z,1006.79
2023-04-26T09:46:57.816Z,1006.77
2023-04-26T09:47:57.770Z,1006.76
2023-04-26T09:48:57.711Z,1006.77
2023-04-26T09:49:57.695Z,1006.76
2023-04-26T09:50:57.724Z,1006.76
2023-04-26T09:51:57.720Z,1006.74
2023-04-26T09:52:57.685Z,1006.73
2023-04-26T09:53:57.663Z,1006.73
2023-04-26T09:54:57.665Z,1006.74
2023-04-26T09:55:57.650Z,1006.73
2023-04-26T09:56:57.633Z,1006.73
2023-04-26T09:57:57.624Z,1006.73
2023-04-26T09:58:57.632Z,1006.70
2023-04-26T09:59:57.590Z,1006.69
2023-04-26T10:00:57.644Z,1006.69
2023-04-26T10:01:57.553Z,1006.69
2023-04-26T10:02:57.791Z,1006.69
2023-04-26T10:03:57.806Z,1006.69
2023-04-26T10:04:57.750Z,1006.68
2023-04-26T10:05:57.559Z,1006.68
2023-04-26T10:06:57.533Z,1006.68
2023-04-26T10:07:57.502Z,1006.68
2023-04-26T10:08:57.694Z,1006.68
2023-04-26T10:09:57.483Z,1006.70
2023-04-26T10:10:57.517Z,1006.70
2023-04-26T10:11:57.457Z,1006.70
2023-04-26T10:12:57.470Z,1006.69
2023-04-26T10:13:57.429Z,1006.66
2023-04-26T10:14:57.537Z,1006.65
2023-04-26T10:15:57.414Z,1006.64
2023-04-26T10:16:57.460Z,1006.63
2023-04-26T10:17:57.451Z,1006.63
2023-04-26T10:18:57.416Z,1006.61
2023-04-26T10:19:57.364Z,1006.59
2023-04-26T10:20:57.418Z,1006.58
2023-04-26T10:21:57.367Z,1006.58
2023-04-26T10:22:57.366Z,1006.57
2023-04-26T10:23:57.349Z,1006.57
2023-04-26T10:24:57.345Z,1006.57
2023-04-26T10:25:57.304Z,1006.60
2023-04-26T10:26:57.362Z,1006.59
2023-04-26T10:27:57.284Z,1006.61
2023-04-26T10:29:01.962Z,1006.61
2023-04-26T10:29:57.281Z,1006.58
2023-04-26T10:30:57.281Z,1006.55
2023-04-26T10:31:57.289Z,1006.55
2023-04-26T10:32:57.532Z,1006.53
2023-04-26T10:33:57.226Z,1006.52
2023-04-26T10:34:57.239Z,1006.52
2023-04-26T10:35:57.248Z,1006.51
2023-04-26T10:36:57.263Z,1006.49
2023-04-26T10:37:57.284Z,1006.50
2023-04-26T10:38:57.188Z,1006.50
2023-04-26T10:39:57.167Z,1006.49
2023-04-26T10:40:57.172Z,1006.48
2023-04-26T10:41:57.161Z,1006.47
2023-04-26T10:42:57.154Z,1006.44
2023-04-26T10:43:57.199Z,1006.41
2023-04-26T10:44:57.123Z,1006.41
2023-04-26T10:45:57.171Z,1006.41
2023-04-26T10:46:57.104Z,1006.42
2023-04-26T10:47:57.170Z,1006.41
2023-04-26T10:48:57.103Z,1006.38
2023-04-26T10:49:57.063Z,1006.37
2023-04-26T10:50:57.063Z,1006.35
2023-04-26T10:51:57.049Z,1006.36
2023-04-26T10:52:57.066Z,1006.36
2023-04-26T10:53:57.051Z,1006.35
2023-04-26T10:54:57.030Z,1006.33
2023-04-26T10:55:56.996Z,1006.31
2023-04-26T10:56:56.992Z,1006.28
2023-04-26T10:57:57.136Z,1006.26
2023-04-26T10:58:56.959Z,1006.26
2023-04-26T10:59:56.987Z,1006.26
2023-04-26T11:00:57.032Z,1006.26
2023-04-26T11:01:56.952Z,1006.25
2023-04-26T11:02:56.994Z,1006.24
2023-04-26T11:03:57.531Z,1006.22
2023-04-26T11:04:56.939Z,1006.20
2023-04-26T11:05:56.981Z,1006.19
2023-04-26T11:06:56.879Z,1006.20
2023-04-26T11:07:56.878Z,1006.21
2023-04-26T11:08:56.854Z,1006.23
2023-04-26T11:09:56.902Z,1006.20
2023-04-26T11:10:56.968Z,1006.19
2023-04-26T11:11:56.898Z,1006.17
2023-04-26T11:12:56.837Z,1006.14
2023-04-26T11:13:56.818Z,1006.24
2023-04-26T11:14:56.926Z,1006.20
2023-04-26T11:15:56.870Z,1006.18
2023-04-26T11:16:56.815Z,1006.18
2023-04-26T11:17:56.818Z,1006.17
2023-04-26T11:18:56.800Z,1006.18
2023-04-26T11:19:56.749Z,1006.15
2023-04-26T11:20:56.732Z,1006.15
2023-04-26T11:21:56.756Z,1006.15
2023-04-26T11:22:56.720Z,1006.14
2023-04-26T11:23:56.714Z,1006.16
2023-04-26T11:24:56.678Z,1006.16
2023-04-26T11:25:56.765Z,1006.15
2023-04-26T11:26:56.667Z,1006.15
2023-04-26T11:27:56.662Z,1006.16
2023-04-26T11:28:56.678Z,1006.11
2023-04-26T11:29:56.640Z,1006.10
2023-04-26T11:30:56.647Z,1006.07
2023-04-26T11:31:56.695Z,1006.03
2023-04-26T11:32:56.683Z,1006.02
2023-04-26T11:33:56.605Z,1006.03
2023-04-26T11:34:56.718Z,1006.00
2023-04-26T11:35:56.591Z,1005.99
2023-04-26T11:36:56.555Z,1006.01
2023-04-26T11:37:56.579Z,1006.06
2023-04-26T11:38:56.679Z,1006.04
2023-04-26T11:39:56.536Z,1005.99
2023-04-26T11:40:56.558Z,1005.99
2023-04-26T11:41:56.578Z,1005.98
2023-04-26T11:42:56.502Z,1005.98
2023-04-26T11:43:56.602Z,1006.00
2023-04-26T11:44:56.483Z,1005.97
2023-04-26T11:45:56.503Z,1005.93
2023-04-26T11:46:56.576Z,1005.96
2023-04-26T11:47:56.542Z,1005.94
2023-04-26T11:48:56.432Z,1005.94
2023-04-26T11:49:57.118Z,1005.94
2023-04-26T11:50:56.401Z,1005.94
2023-04-26T11:51:56.435Z,1005.90
2023-04-26T11:52:56.482Z,1005.87
2023-04-26T11:53:56.420Z,1005.86
2023-04-26T11:54:56.360Z,1005.84
2023-04-26T11:55:56.370Z,1005.84
2023-04-26T11:56:56.335Z,1005.83
2023-04-26T11:57:56.355Z,1005.86
2023-04-26T11:58:56.762Z,1005.84
2023-04-26T11:59:57.143Z,1005.86
2023-04-26T12:00:56.288Z,1005.86
2023-04-26T12:01:56.434Z,1005.90
2023-04-26T12:02:56.394Z,1005.86
2023-04-26T12:03:56.558Z,1005.81
2023-04-26T12:04:56.611Z,1005.82
2023-04-26T12:05:56.256Z,1005.83
2023-04-26T12:06:56.234Z,1005.80
2023-04-26T12:07:56.233Z,1005.80
2023-04-26T12:08:56.243Z,1005.80
2023-04-26T12:09:56.260Z,1005.83
2023-04-26T12:10:56.188Z,1005.84
2023-04-26T12:11:56.192Z,1005.83
2023-04-26T12:12:56.208Z,1005.82
2023-04-26T12:13:56.198Z,1005.82
2023-04-26T12:14:56.216Z,1005.82
2023-04-26T12:15:56.197Z,1005.80
2023-04-26T12:16:56.154Z,1005.80
2023-04-26T12:17:56.215Z,1005.80
2023-04-26T12:18:56.110Z,1005.78
2023-04-26T12:19:56.124Z,1005.77
2023-04-26T12:20:56.113Z,1005.78
2023-04-26T12:21:56.087Z,1005.78
2023-04-26T12:22:56.092Z,1005.78
2023-04-26T12:23:56.060Z,1005.78
2023-04-26T12:24:56.046Z,1005.77
2023-04-26T12:25:56.043Z,1005.72
2023-04-26T12:26:56.030Z,1005.71
2023-04-26T12:27:56.034Z,1005.70
2023-04-26T12:28:56.001Z,1005.67
2023-04-26T12:29:56.006Z,1005.71
2023-04-26T12:30:55.974Z,1005.70
2023-04-26T12:31:56.133Z,1005.72
2023-04-26T12:33:05.811Z,1005.75
2023-04-26T12:33:55.975Z,1005.70
2023-04-26T12:34:55.940Z,1005.70
2023-04-26T12:35:55.949Z,1005.70
2023-04-26T12:36:55.976Z,1005.73
2023-04-26T12:37:55.913Z,1005.72
2023-04-26T12:38:55.908Z,1005.73
2023-04-26T12:39:55.914Z,1005.72
2023-04-26T12:40:55.868Z,1005.71
2023-04-26T12:41:55.883Z,1005.70
2023-04-26T12:42:55.863Z,1005.73
2023-04-26T12:43:55.882Z,1005.72
2023-04-26T12:44:55.850Z,1005.72
2023-04-26T12:45:55.869Z,1005.71
2023-04-26T12:46:55.800Z,1005.72
2023-04-26T12:47:55.891Z,1005.72
2023-04-26T12:48:55.782Z,1005.71
2023-04-26T12:49:55.795Z,1005.71
2023-04-26T12:50:55.804Z,1005.70
2023-04-26T12:51:55.761Z,1005.68
2023-04-26T12:52:55.777Z,1005.67
2023-04-26T12:53:55.743Z,1005.68
2023-04-26T12:54:55.718Z,1005.67
2023-04-26T12:55:55.730Z,1005.65
2023-04-26T12:56:55.718Z,1005.65
2023-04-26T12:57:55.701Z,1005.66
2023-04-26T12:58:55.703Z,1005.65
2023-04-26T12:59:55.690Z,1005.65
2023-04-26T13:00:55.649Z,1005.64
2023-04-26T13:01:55.787Z,1005.64
2023-04-26T13:02:55.732Z,1005.63
2023-04-26T13:03:55.890Z,1005.65
2023-04-26T13:04:55.743Z,1005.65
2023-04-26T13:05:55.620Z,1005.65
2023-04-26T13:06:55.610Z,1005.66
2023-04-26T13:07:55.605Z,1005.64
2023-04-26T13:08:55.586Z,1005.60
2023-04-26T13:09:55.571Z,1005.62
2023-04-26T13:10:55.542Z,1005.66
2023-04-26T13:11:55.547Z,1005.66
2023-04-26T13:12:55.543Z,1005.66
2023-04-26T13:13:55.566Z,1005.63
2023-04-26T13:14:55.521Z,1005.62
2023-04-26T13:15:55.549Z,1005.59
2023-04-26T13:16:55.492Z,1005.60
2023-04-26T13:17:55.664Z,1005.60
2023-04-26T13:18:55.571Z,1005.62
2023-04-26T13:19:55.493Z,1005.63
2023-04-26T13:20:55.460Z,1005.63
2023-04-26T13:21:55.451Z,1005.67
2023-04-26T13:22:55.429Z,1005.61
2023-04-26T13:23:55.449Z,1005.61
2023-04-26T13:24:55.401Z,1005.57
2023-04-26T13:25:55.455Z,1005.57
2023-04-26T13:26:55.378Z,1005.59
2023-04-26T13:27:55.388Z,1005.59
2023-04-26T13:28:55.363Z,1005.58
2023-04-26T13:29:55.374Z,1005.59
2023-04-26T13:30:55.343Z,1005.60
2023-04-26T13:31:55.421Z,1005.59
2023-04-26T13:32:56.596Z,1005.60
2023-04-26T13:33:55.315Z,1005.64
2023-04-26T13:34:55.289Z,1005.65
2023-04-26T13:35:55.301Z,1005.67
2023-04-26T13:36:55.369Z,1005.65
2023-04-26T13:37:55.285Z,1005.67
2023-04-26T13:38:55.252Z,1005.65
2023-04-26T13:39:55.251Z,1005.64
2023-04-26T13:40:55.237Z,1005.62
2023-04-26T13:41:55.230Z,1005.61
2023-04-26T13:42:55.226Z,1005.60
2023-04-26T13:43:55.212Z,1005.59
2023-04-26T13:44:55.226Z,1005.58
2023-04-26T13:45:55.305Z,1005.57
2023-04-26T13:46:55.158Z,1005.57
2023-04-26T13:47:55.398Z,1005.54
2023-04-26T13:48:55.159Z,1005.57
2023-04-26T13:49:55.159Z,1005.55
2023-04-26T13:50:55.128Z,1005.55
2023-04-26T13:51:55.122Z,1005.55
2023-04-26T13:52:55.109Z,1005.54
2023-04-26T13:53:55.134Z,1005.55
2023-04-26T13:54:55.068Z,1005.57
2023-04-26T13:55:55.081Z,1005.57
2023-04-26T13:56:55.065Z,1005.58
2023-04-26T13:57:55.058Z,1005.56
2023-04-26T13:58:55.033Z,1005.55
2023-04-26T13:59:55.058Z,1005.55
2023-04-26T14:00:55.027Z,1005.53
2023-04-26T14:01:57.544Z,1005.51
2023-04-26T14:02:55.134Z,1005.52
2023-04-26T14:03:56.105Z,1005.53
2023-04-26T14:04:55.108Z,1005.54
2023-04-26T14:05:55.009Z,1005.54
2023-04-26T14:06:54.957Z,1005.53
2023-04-26T14:07:55.340Z,1005.53
2023-04-26T14:08:54.924Z,1005.50
2023-04-26T14:09:54.956Z,1005.49
2023-04-26T14:10:54.911Z,1005.50
2023-04-26T14:12:07.293Z,1005.49
2023-04-26T14:12:54.907Z,1005.49
2023-04-26T14:13:54.891Z,1005.45
2023-04-26T14:14:54.854Z,1005.45
2023-04-26T14:15:54.911Z,1005.42
2023-04-26T14:16:54.846Z,1005.41
2023-04-26T14:17:54.874Z,1005.39
2023-04-26T14:18:54.867Z,1005.41
2023-04-26T14:19:54.950Z,1005.41
2023-04-26T14:20:54.834Z,1005.41
2023-04-26T14:21:54.805Z,1005.42
2023-04-26T14:22:54.781Z,1005.40
2023-04-26T14:23:54.774Z,1005.40
2023-04-26T14:24:54.789Z,1005.39
2023-04-26T14:25:54.782Z,1005.38
2023-04-26T14:26:54.733Z,1005.38
2023-04-26T14:27:54.748Z,1005.37
2023-04-26T14:28:54.728Z,1005.36
2023-04-26T14:29:54.747Z,1005.35
2023-04-26T14:30:54.696Z,1005.35
2023-04-26T14:31:54.842Z,1005.35
2023-04-26T14:32:54.712Z,1005.35
2023-04-26T14:33:54.671Z,1005.34
2023-04-26T14:34:54.662Z,1005.36
2023-04-26T14:35:54.673Z,1005.35
2023-04-26T14:36:54.640Z,1005.33
2023-04-26T14:37:54.661Z,1005.31
2023-04-26T14:38:54.603Z,1005.29
2023-04-26T14:39:54.607Z,1005.28
2023-04-26T14:40:54.604Z,1005.26
2023-04-26T14:41:54.591Z,1005.25
2023-04-26T14:42:54.567Z,1005.23
2023-04-26T14:43:54.563Z,1005.22
2023-04-26T14:44:54.561Z,1005.20
2023-04-26T14:45:55.245Z,1005.20
2023-04-26T14:46:54.537Z,1005.20
2023-04-26T14:47:54.591Z,1005.25
2023-04-26T14:48:54.507Z,1005.23
2023-04-26T14:49:54.578Z,1005.25
2023-04-26T14:50:54.503Z,1005.28
2023-04-26T14:51:54.481Z,1005.25
2023-04-26T14:52:54.482Z,1005.22
2023-04-26T14:53:54.469Z,1005.23
2023-04-26T14:54:54.440Z,1005.23
2023-04-26T14:55:54.428Z,1005.23
2023-04-26T14:56:54.426Z,1005.21
2023-04-26T14:57:54.407Z,1005.21
2023-04-26T14:58:54.421Z,1005.21
2023-04-26T14:59:54.420Z,1005.20
2023-04-26T15:00:54.387Z,1005.16
2023-04-26T15:01:54.394Z,1005.13
2023-04-26T15:02:54.613Z,1005.11
2023-04-26T15:03:55.154Z,1005.10
2023-04-26T15:04:54.375Z,1005.10
2023-04-26T15:05:54.354Z,1005.08
2023-04-26T15:06:54.302Z,1005.04
2023-04-26T15:07:54.325Z,1005.03
2023-04-26T15:08:54.292Z,1005.04
2023-04-26T15:09:54.318Z,1005.04
2023-04-26T15:10:54.299Z,1005.00
2023-04-26T15:11:54.255Z,1005.03
2023-04-26T15:12:54.263Z,1005.01
2023-04-26T15:13:54.232Z,1004.97
2023-04-26T15:14:54.263Z,1004.97
2023-04-26T15:15:54.214Z,1004.99
2023-04-26T15:16:54.279Z,1005.00
2023-04-26T15:17:54.264Z,1004.97
2023-04-26T15:18:54.223Z,1004.97
2023-04-26T15:19:54.195Z,1004.97
2023-04-26T15:20:54.168Z,1004.96
2023-04-26T15:21:54.233Z,1004.97
2023-04-26T15:22:54.160Z,1004.92
2023-04-26T15:23:54.120Z,1004.92
2023-04-26T15:24:54.137Z,1004.93
2023-04-26T15:25:54.156Z,1004.93
2023-04-26T15:26:54.105Z,1004.95
2023-04-26T15:27:54.094Z,1004.96
2023-04-26T15:28:54.085Z,1004.98
2023-04-26T15:29:54.057Z,1004.99
2023-04-26T15:30:54.070Z,1004.99
2023-04-26T15:31:54.176Z,1004.99
2023-04-26T15:32:54.092Z,1004.98
2023-04-26T15:33:54.056Z,1004.98
2023-04-26T15:34:54.029Z,1004.96
2023-04-26T15:35:53.998Z,1004.96
2023-04-26T15:36:54.036Z,1004.96
2023-04-26T15:37:54.186Z,1004.96
2023-04-26T15:38:53.997Z,1004.95
2023-04-26T15:39:53.980Z,1004.96
2023-04-26T15:40:53.972Z,1004.97
2023-04-26T15:41:53.938Z,1004.90
2023-04-26T15:42:53.962Z,1004.93
2023-04-26T15:43:53.965Z,1004.90
2023-04-26T15:44:53.931Z,1004.90
2023-04-26T15:45:53.939Z,1004.91
2023-04-26T15:46:53.914Z,1004.94
2023-04-26T15:47:53.889Z,1004.91
2023-04-26T15:48:53.946Z,1004.92
2023-04-26T15:49:53.915Z,1004.92
2023-04-26T15:50:53.885Z,1004.93
2023-04-26T15:51:53.830Z,1004.93
2023-04-26T15:52:53.827Z,1004.94
2023-04-26T15:53:53.823Z,1004.98
2023-04-26T15:54:53.836Z,1004.97
2023-04-26T15:55:53.788Z,1004.98
2023-04-26T15:56:53.801Z,1004.97
2023-04-26T15:57:53.753Z,1004.97
2023-04-26T15:58:53.781Z,1004.96
2023-04-26T15:59:53.772Z,1004.98
2023-04-26T16:00:53.751Z,1004.97
2023-04-26T16:01:53.839Z,1004.97
2023-04-26T16:02:53.917Z,1004.97
2023-04-26T16:03:53.832Z,1004.97
2023-04-26T16:04:53.797Z,1004.95
2023-04-26T16:05:53.678Z,1004.96
2023-04-26T16:06:53.688Z,1004.98
2023-04-26T16:07:53.654Z,1004.99
2023-04-26T16:08:53.719Z,1005.02
2023-04-26T16:09:53.646Z,1005.00
2023-04-26T16:10:53.708Z,1004.99
2023-04-26T16:11:53.605Z,1005.00
2023-04-26T16:12:53.632Z,1004.98
2023-04-26T16:13:53.601Z,1004.97
2023-04-26T16:14:53.600Z,1004.96
2023-04-26T16:15:53.578Z,1004.95
2023-04-26T16:16:53.567Z,1004.95
2023-04-26T16:17:53.586Z,1004.95
2023-04-26T16:18:53.592Z,1004.97
2023-04-26T16:19:53.536Z,1004.98
2023-04-26T16:20:53.535Z,1004.94
2023-04-26T16:21:53.513Z,1004.93
2023-04-26T16:22:53.517Z,1004.91
2023-04-26T16:23:53.481Z,1004.89
2023-04-26T16:24:53.538Z,1004.87
2023-04-26T16:25:53.480Z,1004.84
2023-04-26T16:26:53.470Z,1004.85
2023-04-26T16:27:53.438Z,1004.83
2023-04-26T16:28:53.449Z,1004.83
2023-04-26T16:29:53.438Z,1004.85
2023-04-26T16:30:53.436Z,1004.84
2023-04-26T16:31:53.490Z,1004.82
2023-04-26T16:32:53.407Z,1004.82
2023-04-26T16:33:53.472Z,1004.81
2023-04-26T16:34:53.379Z,1004.81
2023-04-26T16:35:53.349Z,1004.79